Time;durP1;ratioP1;P1;durP2;ratioP2;P2;SDS_P1;SDS_P2;PMS_P1;PMS_P2;Temp;Humidity;BMP_temperature;BMP_pressure;BME280_temperature;BME280_humidity;BME280_pressure;Samples;Min_cycle;Max_cycle;Signal;HPM_P1;HPM_P2
2022/01/06 00:02:00;;;;;;;38.90;35.27;;;5.50;99.90;;;;;;4987782;28;20636;-78
2022/01/06 00:04:26;;;;;;;38.30;34.73;;;5.60;99.90;;;;;;4973677;28;20202;-79
2022/01/06 00:06:52;;;;;;;35.57;32.47;;;5.50;99.90;;;;;;4974548;28;20208;-79
2022/01/06 00:09:19;;;;;;;37.00;33.83;;;5.50;99.90;;;;;;4988567;28;20190;-79
2022/01/06 00:11:44;;;;;;;35.53;32.73;;;5.60;99.90;;;;;;5007963;28;20877;-80
2022/01/06 00:14:19;;;;;;;36.40;33.23;;;5.60;99.90;;;;;;5024791;28;20278;-79
2022/01/06 00:24:50;;;;;;;37.60;31.50;;;5.50;99.90;;;;;;5007125;28;20750;-79
2022/01/06 00:27:15;;;;;;;35.83;31.90;;;5.50;99.90;;;;;;5011045;28;20254;-79
2022/01/06 00:29:42;;;;;;;45.03;32.50;;;5.50;99.90;;;;;;4994445;28;20251;-79
2022/01/06 00:32:09;;;;;;;36.00;32.80;;;5.60;99.90;;;;;;5021858;28;20680;-79
2022/01/06 00:34:34;;;;;;;36.73;32.97;;;5.50;99.90;;;;;;5021655;28;20378;-80
2022/01/06 00:37:01;;;;;;;34.97;31.83;;;5.50;99.90;;;;;;4970993;28;20263;-78
2022/01/06 00:39:28;;;;;;;34.23;31.13;;;5.50;99.90;;;;;;5005708;28;20199;-79
2022/01/06 00:41:59;;;;;;;35.03;31.50;;;5.50;99.90;;;;;;5020406;28;20268;-79
2022/01/06 00:44:25;;;;;;;35.83;32.10;;;5.60;99.90;;;;;;5005485;28;20561;-79
2022/01/06 00:46:52;;;;;;;34.53;31.33;;;5.50;99.90;;;;;;4989048;28;20356;-79
2022/01/06 00:49:20;;;;;;;33.87;30.60;;;5.50;99.90;;;;;;5003369;28;20215;-79
2022/01/06 00:51:46;;;;;;;32.67;30.00;;;5.50;99.90;;;;;;4988045;28;20217;-79
2022/01/06 00:54:12;;;;;;;33.87;30.53;;;5.50;99.90;;;;;;5024999;28;20202;-79
2022/01/06 00:56:38;;;;;;;33.70;30.27;;;5.50;99.90;;;;;;5003136;28;20596;-78
2022/01/06 00:59:04;;;;;;;35.53;30.37;;;5.50;99.90;;;;;;5019935;28;20225;-79
2022/01/06 01:01:30;;;;;;;32.40;29.13;;;5.40;99.90;;;;;;5003630;28;20194;-79
2022/01/06 01:03:56;;;;;;;34.27;31.30;;;5.50;99.90;;;;;;5004410;28;20207;-79
2022/01/06 01:06:22;;;;;;;35.23;31.10;;;5.40;99.90;;;;;;4995751;28;20213;-79
2022/01/06 01:08:47;;;;;;;35.33;31.83;;;5.40;99.90;;;;;;4985823;28;20274;-80
2022/01/06 01:11:13;;;;;;;35.33;31.73;;;5.40;99.90;;;;;;5006030;28;20717;-78
2022/01/06 01:14:16;;;;;;;33.63;30.00;;;5.40;99.90;;;;;;5005517;28;20217;-80
2022/01/06 01:16:31;;;;;;;35.80;32.10;;;5.40;99.90;;;;;;5007957;28;20196;-78
2022/01/06 01:18:59;;;;;;;36.10;32.10;;;5.40;99.90;;;;;;5021847;28;20203;-79
2022/01/06 01:21:27;;;;;;;33.63;30.33;;;5.40;99.90;;;;;;5004585;28;20644;-79
2022/01/06 01:23:54;;;;;;;33.53;29.73;;;5.40;99.90;;;;;;5005311;28;20240;-79
2022/01/06 01:26:21;;;;;;;31.40;28.23;;;5.40;99.90;;;;;;5020316;28;20187;-79
2022/01/06 01:28:47;;;;;;;29.70;26.97;;;5.50;99.90;;;;;;5022027;28;20497;-79
2022/01/06 01:33:43;;;;;;;29.47;27.47;;;5.60;99.90;;;;;;5022014;28;20211;-78
2022/01/06 01:36:09;;;;;;;28.50;25.70;;;5.60;99.90;;;;;;5006103;28;20190;-79
2022/01/06 01:38:37;;;;;;;28.10;26.10;;;5.60;99.90;;;;;;5005322;28;20804;-80
2022/01/06 01:41:03;;;;;;;28.67;25.90;;;5.60;99.90;;;;;;4993320;28;20193;-80
2022/01/06 01:43:30;;;;;;;28.40;25.80;;;5.60;99.90;;;;;;4977209;28;20234;-80
2022/01/06 01:45:58;;;;;;;27.10;25.30;;;5.60;99.90;;;;;;4990990;28;20647;-79
2022/01/06 01:48:34;;;;;;;25.93;24.23;;;5.50;99.90;;;;;;5007150;28;20186;-79
2022/01/06 01:51:00;;;;;;;27.47;23.53;;;5.60;99.90;;;;;;5007801;28;20906;-79
2022/01/06 01:53:25;;;;;;;27.00;24.90;;;5.50;99.90;;;;;;4991728;28;20270;-79
2022/01/06 01:55:51;;;;;;;25.07;23.13;;;5.50;99.90;;;;;;4990731;28;20190;-79
2022/01/06 01:58:18;;;;;;;26.07;23.90;;;5.40;99.90;;;;;;4991068;28;20203;-79
2022/01/06 02:00:44;;;;;;;24.10;21.83;;;5.40;99.90;;;;;;5013721;28;21173;-78
2022/01/06 02:03:10;;;;;;;25.10;22.77;;;5.40;99.90;;;;;;5005979;28;20199;-79
2022/01/06 02:05:36;;;;;;;25.37;23.27;;;5.40;99.90;;;;;;4990168;28;20214;-78
2022/01/06 02:08:02;;;;;;;24.63;22.67;;;5.30;99.90;;;;;;4992203;28;20190;-78
2022/01/06 02:10:29;;;;;;;24.43;22.13;;;5.30;99.90;;;;;;4976073;28;20508;-79
2022/01/06 02:12:56;;;;;;;24.87;22.30;;;5.30;99.90;;;;;;5008939;28;20273;-78
2022/01/06 02:15:22;;;;;;;24.67;22.50;;;5.30;99.90;;;;;;4996563;28;20246;-79
2022/01/06 02:17:49;;;;;;;24.87;22.40;;;5.30;99.90;;;;;;5007660;28;20183;-79
2022/01/06 02:20:17;;;;;;;25.73;23.37;;;5.30;99.90;;;;;;4989978;28;20187;-78
2022/01/06 02:22:43;;;;;;;24.57;22.70;;;5.20;99.90;;;;;;5022537;28;20190;-77
2022/01/06 02:25:13;;;;;;;26.60;24.07;;;5.30;99.90;;;;;;4988090;28;20195;-78
2022/01/06 02:27:39;;;;;;;25.93;23.73;;;5.20;99.90;;;;;;5020419;28;20649;-79
2022/01/06 02:30:07;;;;;;;25.77;23.53;;;5.20;99.90;;;;;;5012881;28;20190;-79
2022/01/06 02:32:33;;;;;;;27.83;25.20;;;5.20;99.90;;;;;;4989902;28;20247;-79
2022/01/06 02:35:07;;;;;;;26.07;23.57;;;5.20;99.90;;;;;;4992143;28;21475;-78
2022/01/06 02:37:33;;;;;;;28.00;25.17;;;5.20;99.90;;;;;;5023568;28;20186;-79
2022/01/06 02:39:59;;;;;;;30.10;26.10;;;5.30;99.90;;;;;;4991608;28;20191;-79
2022/01/06 02:42:25;;;;;;;27.13;24.57;;;5.20;99.90;;;;;;5025474;28;20288;-79
2022/01/06 02:44:51;;;;;;;27.90;25.17;;;5.20;99.90;;;;;;4994015;28;20661;-79
2022/01/06 02:47:17;;;;;;;26.03;23.63;;;5.20;99.90;;;;;;4992900;28;20290;-79
2022/01/06 02:49:42;;;;;;;28.70;25.90;;;5.20;99.90;;;;;;4991149;28;20227;-79
2022/01/06 02:52:08;;;;;;;28.93;26.63;;;5.20;99.90;;;;;;4990807;28;20239;-79
2022/01/06 02:54:34;;;;;;;35.07;26.10;;;5.20;99.90;;;;;;4989981;28;20197;-79
2022/01/06 02:57:00;;;;;;;27.83;25.37;;;5.20;99.90;;;;;;5008591;28;20206;-79
2022/01/06 02:59:25;;;;;;;28.83;26.07;;;5.20;99.90;;;;;;4990381;28;20297;-77
2022/01/06 03:01:51;;;;;;;28.07;25.50;;;5.20;99.90;;;;;;5007313;28;20196;-79
2022/01/06 03:04:20;;;;;;;28.13;25.40;;;5.20;99.90;;;;;;4998869;28;20248;-79
2022/01/06 03:06:46;;;;;;;30.67;27.13;;;5.20;99.90;;;;;;5023045;28;20194;-79
2022/01/06 03:09:12;;;;;;;30.40;27.57;;;5.20;99.90;;;;;;4990531;28;20194;-79
2022/01/06 03:11:42;;;;;;;29.40;26.80;;;5.20;99.90;;;;;;5006420;28;20236;-79
2022/01/06 03:14:08;;;;;;;31.33;27.80;;;5.30;99.90;;;;;;4989818;28;20188;-78
2022/01/06 03:16:34;;;;;;;29.40;26.80;;;5.30;99.90;;;;;;4989278;28;20214;-79
2022/01/06 03:18:59;;;;;;;31.13;27.20;;;5.30;99.90;;;;;;5007145;28;20278;-78
2022/01/06 03:21:25;;;;;;;31.03;27.80;;;5.40;99.90;;;;;;4988727;28;20298;-79
2022/01/06 03:23:50;;;;;;;31.37;28.77;;;5.30;99.90;;;;;;4976117;28;20198;-80
2022/01/06 03:26:16;;;;;;;30.80;28.40;;;5.30;99.90;;;;;;5006260;28;20270;-78
2022/01/06 03:28:42;;;;;;;31.77;29.30;;;5.30;99.90;;;;;;4990558;28;20217;-79
2022/01/06 03:31:10;;;;;;;30.77;27.73;;;5.30;99.90;;;;;;5007205;28;20250;-79
2022/01/06 03:33:36;;;;;;;31.77;28.93;;;5.30;99.90;;;;;;4996842;28;20573;-78
2022/01/06 03:36:02;;;;;;;31.07;28.20;;;5.30;99.90;;;;;;4975946;28;20269;-79
2022/01/06 03:38:27;;;;;;;29.90;27.20;;;5.30;99.90;;;;;;5026018;28;20278;-79
2022/01/06 03:40:53;;;;;;;28.80;26.10;;;5.30;99.90;;;;;;4990350;28;20234;-79
2022/01/06 03:43:19;;;;;;;26.43;24.07;;;5.30;99.90;;;;;;4989673;28;20717;-79
2022/01/06 03:45:45;;;;;;;27.33;24.53;;;5.30;99.90;;;;;;4989639;28;20167;-78
2022/01/06 03:48:10;;;;;;;27.37;24.90;;;5.20;99.90;;;;;;5019003;28;20191;-79
2022/01/06 03:50:36;;;;;;;27.77;24.90;;;5.20;99.90;;;;;;4988059;28;20734;-78
2022/01/06 03:53:02;;;;;;;27.00;24.70;;;5.20;99.90;;;;;;4976193;28;20187;-79
2022/01/06 03:55:27;;;;;;;25.97;23.33;;;5.10;99.90;;;;;;5022232;28;20246;-77
2022/01/06 03:57:53;;;;;;;28.17;25.20;;;5.00;99.90;;;;;;4995317;28;20704;-78
2022/01/06 04:00:21;;;;;;;28.60;26.07;;;5.00;99.90;;;;;;4988386;28;21197;-79
2022/01/06 04:02:48;;;;;;;30.13;26.97;;;5.00;99.90;;;;;;4988907;28;20199;-79
2022/01/06 04:05:13;;;;;;;30.53;27.57;;;5.00;99.90;;;;;;5006615;28;20182;-78
2022/01/06 04:07:40;;;;;;;28.87;26.23;;;5.10;99.90;;;;;;4989275;28;20194;-79
2022/01/06 04:10:07;;;;;;;30.50;27.97;;;5.20;99.90;;;;;;4988798;28;20282;-79
2022/01/06 04:12:35;;;;;;;30.40;27.77;;;5.20;99.90;;;;;;5006512;28;20598;-79
2022/01/06 04:15:01;;;;;;;30.63;28.10;;;5.20;99.90;;;;;;5004603;28;20183;-78
2022/01/06 04:17:26;;;;;;;30.00;27.70;;;5.20;99.90;;;;;;4990637;28;20188;-79
2022/01/06 04:19:52;;;;;;;34.03;30.93;;;5.30;99.90;;;;;;5027767;28;20205;-78
2022/01/06 04:22:18;;;;;;;30.47;27.93;;;5.30;99.90;;;;;;4985727;28;20273;-78
2022/01/06 04:24:45;;;;;;;31.33;28.23;;;5.30;99.90;;;;;;4994459;28;20188;-79
2022/01/06 04:27:10;;;;;;;29.43;26.50;;;5.40;99.90;;;;;;4988989;28;20242;-79
2022/01/06 04:29:36;;;;;;;28.63;26.13;;;5.40;99.90;;;;;;4988128;28;21024;-79
2022/01/06 04:32:02;;;;;;;29.07;26.77;;;5.50;99.90;;;;;;4986873;28;20213;-78
2022/01/06 04:34:29;;;;;;;29.17;26.67;;;5.40;99.90;;;;;;4985050;28;20202;-79
2022/01/06 04:36:57;;;;;;;28.87;27.03;;;5.40;99.90;;;;;;5004244;28;20218;-78
2022/01/06 04:39:23;;;;;;;30.23;28.13;;;5.40;99.90;;;;;;5006146;28;20191;-79
2022/01/06 04:41:49;;;;;;;33.83;31.03;;;5.40;99.90;;;;;;4988837;28;20569;-79
2022/01/06 04:44:14;;;;;;;33.17;30.50;;;5.40;99.90;;;;;;4973658;28;20746;-78
2022/01/06 04:46:41;;;;;;;32.20;29.93;;;5.40;99.90;;;;;;4975041;28;20606;-79
2022/01/06 04:49:07;;;;;;;33.50;31.30;;;5.40;99.90;;;;;;5005903;28;20196;-79
2022/01/06 04:51:33;;;;;;;34.50;31.80;;;5.30;99.90;;;;;;5023856;28;20771;-79
2022/01/06 04:53:59;;;;;;;34.87;32.93;;;5.30;99.90;;;;;;4987886;28;20235;-79
2022/01/06 04:56:24;;;;;;;34.40;32.23;;;5.10;99.90;;;;;;5008679;28;20211;-78
2022/01/06 04:58:50;;;;;;;36.10;33.83;;;5.00;99.90;;;;;;5003836;28;20218;-78
2022/01/06 05:01:16;;;;;;;37.23;34.87;;;5.00;99.90;;;;;;5003383;28;20697;-79
2022/01/06 05:03:41;;;;;;;35.63;33.37;;;4.90;99.90;;;;;;4987076;28;20257;-78
2022/01/06 05:06:07;;;;;;;34.97;32.83;;;4.90;99.90;;;;;;4986061;28;20300;-79
2022/01/06 05:08:33;;;;;;;36.07;33.57;;;4.90;99.90;;;;;;4985573;28;20487;-79
2022/01/06 05:10:59;;;;;;;36.77;34.17;;;4.90;99.90;;;;;;5007088;28;20224;-80
2022/01/06 05:13:25;;;;;;;36.97;34.40;;;4.90;99.90;;;;;;4999012;28;20207;-79
2022/01/06 05:15:50;;;;;;;38.07;35.07;;;4.90;99.90;;;;;;5000782;28;20619;-79
2022/01/06 05:18:16;;;;;;;37.90;35.57;;;4.90;99.90;;;;;;5011976;28;20194;-80
2022/01/06 05:20:43;;;;;;;37.70;35.23;;;4.90;99.90;;;;;;5005089;28;20194;-79
2022/01/06 05:23:10;;;;;;;36.83;34.57;;;4.90;99.90;;;;;;4988828;28;20194;-79
2022/01/06 05:25:36;;;;;;;35.80;33.50;;;4.90;99.90;;;;;;5023761;28;20214;-80
2022/01/06 05:28:02;;;;;;;34.30;32.13;;;4.90;99.90;;;;;;4973946;28;20239;-79
2022/01/06 05:30:27;;;;;;;34.50;32.17;;;4.90;99.90;;;;;;4987095;28;20257;-80
2022/01/06 05:32:53;;;;;;;37.30;34.23;;;4.90;99.90;;;;;;4989926;28;20214;-80
2022/01/06 05:35:19;;;;;;;36.80;33.73;;;4.90;99.90;;;;;;4988822;28;20213;-79
2022/01/06 05:37:45;;;;;;;35.23;33.33;;;4.90;99.90;;;;;;4986915;28;20282;-79
2022/01/06 05:40:12;;;;;;;34.47;31.57;;;4.80;99.90;;;;;;5005420;28;20199;-80
2022/01/06 05:42:37;;;;;;;34.87;31.97;;;4.80;99.90;;;;;;4988295;28;21674;-80
2022/01/06 05:45:05;;;;;;;36.57;33.50;;;4.80;99.90;;;;;;4987958;28;20195;-79
2022/01/06 05:47:30;;;;;;;33.77;31.20;;;4.80;99.90;;;;;;5005929;28;20191;-79
2022/01/06 05:49:56;;;;;;;34.20;31.77;;;4.80;99.90;;;;;;4980165;28;20290;-79
2022/01/06 05:52:22;;;;;;;35.17;32.73;;;4.80;99.90;;;;;;4988350;28;20699;-80
2022/01/06 05:54:48;;;;;;;32.40;30.30;;;4.70;99.90;;;;;;4970378;28;20192;-79
2022/01/06 05:57:15;;;;;;;33.60;31.57;;;4.70;99.90;;;;;;4974134;28;20211;-79
2022/01/06 05:59:41;;;;;;;36.53;33.67;;;4.80;99.90;;;;;;5019056;28;20265;-79
2022/01/06 06:02:07;;;;;;;37.03;34.67;;;4.70;99.90;;;;;;5021743;28;20191;-79
2022/01/06 06:04:33;;;;;;;35.07;32.57;;;4.60;99.90;;;;;;4972630;28;20215;-78
2022/01/06 06:06:59;;;;;;;35.53;33.07;;;4.70;99.90;;;;;;5022620;28;20240;-79
2022/01/06 06:09:24;;;;;;;35.50;33.17;;;4.60;99.90;;;;;;4985918;28;20191;-79
2022/01/06 06:11:50;;;;;;;33.73;31.47;;;4.60;99.90;;;;;;5000299;28;20259;-78
2022/01/06 06:14:16;;;;;;;34.87;32.57;;;4.60;99.90;;;;;;5000781;28;20188;-79
2022/01/06 06:16:41;;;;;;;30.17;28.37;;;4.60;99.90;;;;;;4983457;28;20239;-79
2022/01/06 06:19:07;;;;;;;32.47;29.90;;;4.70;99.90;;;;;;4968225;28;20191;-80
2022/01/06 06:21:33;;;;;;;34.10;31.90;;;4.70;99.90;;;;;;5000019;28;20271;-79
2022/01/06 06:23:59;;;;;;;35.70;33.10;;;4.70;99.90;;;;;;4984450;28;20196;-79
2022/01/06 06:26:24;;;;;;;36.07;33.30;;;4.70;99.90;;;;;;4990798;28;20703;-80
2022/01/06 06:28:50;;;;;;;35.80;33.20;;;4.60;99.90;;;;;;4998808;28;20661;-79
2022/01/06 06:31:15;;;;;;;35.23;33.13;;;4.60;99.90;;;;;;4997687;28;20240;-79
2022/01/06 06:33:41;;;;;;;37.33;34.30;;;4.70;99.90;;;;;;4981116;28;20188;-78
2022/01/06 06:36:07;;;;;;;40.60;38.30;;;4.70;99.90;;;;;;5002516;28;20211;-80
2022/01/06 06:38:34;;;;;;;43.83;40.43;;;4.60;99.90;;;;;;4983072;28;20227;-80
2022/01/06 06:40:59;;;;;;;43.73;41.07;;;4.70;99.90;;;;;;5007392;28;20246;-80
2022/01/06 06:43:25;;;;;;;39.20;36.80;;;4.70;99.90;;;;;;4985010;28;20666;-80
2022/01/06 06:45:51;;;;;;;38.60;36.43;;;4.70;99.90;;;;;;5001616;28;20279;-78
2022/01/06 06:48:16;;;;;;;40.57;37.83;;;4.70;99.90;;;;;;4983629;28;20193;-79
2022/01/06 06:50:42;;;;;;;40.07;37.77;;;4.70;99.90;;;;;;4996496;28;20223;-79
2022/01/06 06:53:08;;;;;;;40.97;38.27;;;4.70;99.90;;;;;;4998344;28;20246;-79
2022/01/06 06:55:34;;;;;;;36.83;34.23;;;4.70;99.90;;;;;;4997268;28;20207;-80
2022/01/06 06:58:01;;;;;;;37.53;34.87;;;4.80;99.90;;;;;;5001252;28;21004;-80
2022/01/06 07:00:27;;;;;;;37.47;34.57;;;4.80;99.90;;;;;;4982383;28;20641;-78
2022/01/06 07:02:53;;;;;;;37.97;35.37;;;4.70;99.90;;;;;;4999904;28;20207;-78
2022/01/06 07:05:18;;;;;;;39.20;35.83;;;4.70;99.90;;;;;;5000853;28;20210;-80
2022/01/06 07:07:45;;;;;;;39.87;36.17;;;4.70;99.90;;;;;;4984860;28;21138;-81
2022/01/06 07:10:11;;;;;;;37.80;35.30;;;4.80;99.90;;;;;;4999763;28;20195;-80
2022/01/06 07:12:42;;;;;;;37.70;34.73;;;4.80;99.90;;;;;;5000455;28;20232;-79
2022/01/06 07:15:10;;;;;;;37.30;34.73;;;4.80;99.90;;;;;;4983860;28;20239;-79
2022/01/06 07:17:36;;;;;;;35.83;33.20;;;4.90;99.90;;;;;;4999827;28;20196;-79
2022/01/06 07:20:02;;;;;;;35.07;32.87;;;4.80;99.90;;;;;;4998492;28;20199;-79
2022/01/06 07:22:27;;;;;;;33.07;30.80;;;4.90;99.90;;;;;;4967232;28;20206;-79
2022/01/06 07:24:53;;;;;;;35.33;32.67;;;4.80;99.90;;;;;;4982701;28;20189;-81
2022/01/06 07:27:19;;;;;;;33.97;31.67;;;4.80;99.90;;;;;;4970523;28;20242;-81
2022/01/06 07:29:44;;;;;;;34.37;31.80;;;4.80;99.90;;;;;;4988904;28;20595;-79
2022/01/06 07:32:10;;;;;;;34.60;31.97;;;4.80;99.90;;;;;;4997908;28;20573;-79
2022/01/06 07:34:37;;;;;;;36.07;33.30;;;4.80;99.90;;;;;;4982597;28;20187;-79
2022/01/06 07:37:04;;;;;;;37.27;34.43;;;4.80;99.90;;;;;;4985027;28;20196;-79
2022/01/06 07:39:30;;;;;;;38.53;35.63;;;4.80;99.90;;;;;;5006618;28;20661;-79
2022/01/06 07:41:56;;;;;;;39.50;36.50;;;4.80;99.90;;;;;;4997643;28;20232;-79
2022/01/06 07:44:22;;;;;;;41.87;38.20;;;4.80;99.90;;;;;;4968406;28;20576;-80
2022/01/06 07:46:48;;;;;;;40.63;37.63;;;4.80;99.90;;;;;;5016230;28;20252;-80
2022/01/06 07:49:14;;;;;;;42.73;39.40;;;4.80;99.90;;;;;;4997166;28;20199;-81
2022/01/06 07:51:40;;;;;;;43.00;40.00;;;4.70;99.90;;;;;;4999414;28;20303;-80
2022/01/06 07:54:06;;;;;;;42.97;40.00;;;4.70;99.90;;;;;;4982213;28;20756;-79
2022/01/06 07:56:32;;;;;;;43.17;39.87;;;4.70;99.90;;;;;;5001222;28;20293;-78
2022/01/06 07:58:58;;;;;;;41.00;37.50;;;4.80;99.90;;;;;;4966463;28;20198;-80
2022/01/06 08:01:24;;;;;;;42.57;39.50;;;4.70;99.90;;;;;;4982038;28;20298;-79
2022/01/06 08:03:50;;;;;;;43.60;40.33;;;4.90;99.90;;;;;;4997857;28;20259;-79
2022/01/06 08:06:16;;;;;;;43.63;40.03;;;4.90;99.90;;;;;;4996710;28;20191;-79
2022/01/06 08:08:43;;;;;;;43.23;40.03;;;4.90;99.90;;;;;;4982448;28;20195;-80
2022/01/06 08:11:11;;;;;;;44.90;41.07;;;5.00;99.90;;;;;;5001136;28;20270;-79
2022/01/06 08:13:37;;;;;;;44.87;41.37;;;5.00;99.90;;;;;;4999926;28;20239;-81
2022/01/06 08:16:02;;;;;;;43.47;40.37;;;5.00;99.90;;;;;;4999001;28;20195;-79
2022/01/06 08:18:28;;;;;;;45.73;42.63;;;5.20;99.90;;;;;;4980967;28;20192;-79
2022/01/06 08:20:55;;;;;;;46.97;43.97;;;5.60;99.90;;;;;;4968042;28;20202;-80
2022/01/06 08:23:21;;;;;;;44.60;41.23;;;6.00;99.90;;;;;;4997309;28;20214;-80
2022/01/06 08:25:47;;;;;;;43.73;40.00;;;6.50;99.90;;;;;;4996757;28;20196;-79
2022/01/06 08:28:13;;;;;;;45.80;42.53;;;7.00;99.90;;;;;;4997255;28;20291;-80
2022/01/06 08:30:40;;;;;;;43.37;40.00;;;7.40;99.90;;;;;;4998175;28;20822;-80
2022/01/06 08:33:05;;;;;;;41.03;38.10;;;7.80;99.90;;;;;;4999569;28;20187;-79
2022/01/06 08:35:31;;;;;;;41.20;38.57;;;8.30;99.90;;;;;;5012785;28;20991;-78
2022/01/06 08:37:57;;;;;;;39.93;36.73;;;8.60;99.90;;;;;;4996092;28;20243;-80
2022/01/06 08:40:24;;;;;;;39.63;36.40;;;8.90;99.90;;;;;;4980964;28;20198;-80
2022/01/06 08:42:50;;;;;;;33.20;30.90;;;8.50;99.90;;;;;;4998920;28;20202;-80
2022/01/06 08:45:17;;;;;;;30.50;28.60;;;7.90;99.90;;;;;;5006177;28;20206;-80
2022/01/06 08:47:43;;;;;;;28.00;25.93;;;7.40;99.90;;;;;;4981008;28;20234;-78
2022/01/06 08:50:09;;;;;;;26.73;24.50;;;7.00;99.90;;;;;;4998876;28;20517;-79
2022/01/06 08:52:37;;;;;;;24.93;22.87;;;6.70;99.90;;;;;;4985383;28;20701;-79
2022/01/06 08:55:05;;;;;;;24.23;22.00;;;6.50;99.90;;;;;;5004167;28;20187;-81
2022/01/06 08:57:31;;;;;;;23.23;21.33;;;6.30;99.90;;;;;;5003151;28;20207;-80
2022/01/06 08:59:57;;;;;;;21.47;19.70;;;6.30;99.90;;;;;;5001352;28;20276;-79
2022/01/06 09:02:23;;;;;;;22.03;20.00;;;6.30;99.90;;;;;;4983201;28;20206;-79
2022/01/06 09:04:49;;;;;;;20.73;18.93;;;6.40;99.90;;;;;;4988766;28;20187;-80
2022/01/06 09:07:15;;;;;;;20.73;18.73;;;6.60;99.90;;;;;;5002957;28;20308;-80
2022/01/06 09:09:41;;;;;;;22.37;20.23;;;6.70;99.90;;;;;;4982537;28;20196;-80
2022/01/06 09:12:11;;;;;;;22.37;20.40;;;6.80;99.90;;;;;;4971769;28;20264;-81
2022/01/06 09:14:37;;;;;;;22.87;21.30;;;6.70;99.90;;;;;;5000860;28;20527;-80
2022/01/06 09:17:04;;;;;;;22.20;20.10;;;6.60;99.90;;;;;;5008264;28;20234;-80
2022/01/06 09:19:30;;;;;;;21.77;19.83;;;6.40;99.90;;;;;;5000103;28;20204;-80
2022/01/06 09:21:55;;;;;;;23.70;20.47;;;6.30;99.90;;;;;;4982866;28;20284;-78
2022/01/06 09:24:21;;;;;;;21.73;19.80;;;6.20;99.90;;;;;;4986109;28;20255;-80
2022/01/06 09:26:47;;;;;;;22.57;20.50;;;6.10;99.90;;;;;;5004777;28;20200;-79
2022/01/06 09:29:13;;;;;;;21.43;19.70;;;6.00;99.90;;;;;;5003212;28;20216;-81
2022/01/06 09:31:41;;;;;;;22.70;20.67;;;5.90;99.90;;;;;;4984969;28;20596;-80
2022/01/06 09:34:08;;;;;;;21.20;19.70;;;5.90;99.90;;;;;;5000586;28;20250;-80
2022/01/06 09:36:34;;;;;;;24.13;21.93;;;5.80;99.90;;;;;;4986375;28;20850;-81
2022/01/06 09:39:01;;;;;;;23.93;22.00;;;5.70;99.90;;;;;;5002524;28;21074;-80
2022/01/06 09:41:27;;;;;;;25.43;22.40;;;5.70;99.90;;;;;;5002380;28;20311;-79
2022/01/06 09:43:54;;;;;;;26.00;23.70;;;5.70;99.90;;;;;;5001992;28;20207;-81
2022/01/06 09:46:21;;;;;;;28.50;25.53;;;5.70;99.90;;;;;;4992525;28;20252;-79
2022/01/06 09:48:47;;;;;;;27.03;24.63;;;5.70;99.90;;;;;;5008325;28;20608;-79
2022/01/06 09:51:14;;;;;;;26.50;24.33;;;5.70;99.90;;;;;;5002711;28;20211;-80
2022/01/06 09:53:39;;;;;;;28.10;25.80;;;5.80;99.90;;;;;;5003132;28;20268;-81
2022/01/06 09:56:06;;;;;;;27.57;25.40;;;5.80;99.90;;;;;;5018443;28;20219;-80
2022/01/06 09:58:33;;;;;;;29.23;26.27;;;5.80;99.90;;;;;;5002712;28;20203;-80
2022/01/06 10:00:59;;;;;;;28.50;26.20;;;5.90;99.90;;;;;;5000869;28;20696;-80
2022/01/06 10:03:42;;;;;;;29.47;26.77;;;6.10;99.90;;;;;;4983591;28;20184;-80
2022/01/06 10:06:28;;;;;;;29.23;26.73;;;6.20;99.90;;;;;;4999384;28;20264;-78
2022/01/06 10:08:59;;;;;;;29.93;27.63;;;6.40;99.90;;;;;;5003782;28;20616;-79
2022/01/06 10:11:29;;;;;;;31.60;29.00;;;6.50;99.90;;;;;;5002304;28;20565;-79
2022/01/06 10:14:08;;;;;;;31.53;29.23;;;6.50;99.90;;;;;;5021872;28;20279;-81
2022/01/06 10:16:35;;;;;;;31.33;29.20;;;6.60;99.90;;;;;;5023290;28;20199;-80
2022/01/06 10:19:04;;;;;;;30.13;27.80;;;6.60;99.90;;;;;;5003922;28;20191;-81
2022/01/06 10:21:38;;;;;;;31.33;28.80;;;6.60;99.90;;;;;;5023454;28;20286;-80
2022/01/06 10:24:07;;;;;;;32.70;29.90;;;6.60;99.90;;;;;;5004471;28;20269;-80
2022/01/06 10:26:34;;;;;;;32.57;29.30;;;6.60;99.90;;;;;;5022358;28;20267;-80
2022/01/06 10:29:01;;;;;;;32.73;30.00;;;6.60;99.90;;;;;;5003906;28;20760;-80
2022/01/06 10:31:29;;;;;;;31.93;29.23;;;6.60;99.90;;;;;;5004429;28;20218;-79
2022/01/06 10:33:55;;;;;;;31.97;28.93;;;6.60;99.90;;;;;;5003302;28;20231;-80
2022/01/06 10:36:32;;;;;;;30.07;27.53;;;6.60;99.90;;;;;;4987384;28;20198;-79
2022/01/06 10:39:00;;;;;;;29.37;27.23;;;6.60;99.90;;;;;;5020940;28;20190;-81
2022/01/06 10:41:27;;;;;;;30.87;27.67;;;6.60;99.90;;;;;;5002504;28;20617;-79
2022/01/06 10:43:58;;;;;;;27.47;25.17;;;6.60;99.90;;;;;;4988564;28;20240;-81
2022/01/06 10:46:29;;;;;;;28.77;25.83;;;6.70;99.90;;;;;;5005302;28;20207;-81
2022/01/06 10:49:00;;;;;;;27.00;24.60;;;6.80;99.90;;;;;;5017892;28;20270;-79
2022/01/06 10:51:46;;;;;;;26.90;24.80;;;6.80;99.90;;;;;;5020232;28;20214;-80
2022/01/06 10:54:18;;;;;;;25.87;23.73;;;6.80;99.90;;;;;;5020704;28;20221;-79
2022/01/06 10:56:59;;;;;;;25.43;23.30;;;6.80;99.90;;;;;;5018051;28;20311;-81
2022/01/06 10:59:33;;;;;;;22.83;20.67;;;6.80;99.90;;;;;;5020069;28;20222;-80
2022/01/06 11:01:59;;;;;;;22.60;20.80;;;6.90;99.90;;;;;;5002684;28;20556;-82
2022/01/06 11:04:26;;;;;;;22.50;20.53;;;6.90;99.90;;;;;;5004302;28;20199;-80
2022/01/06 11:06:52;;;;;;;20.60;19.10;;;7.00;99.90;;;;;;5002989;28;20620;-80
2022/01/06 11:09:18;;;;;;;19.60;17.63;;;7.00;99.90;;;;;;5002796;28;20250;-78
2022/01/06 11:14:28;;;;;;;16.37;14.87;;;7.00;99.90;;;;;;5018849;28;20195;-80
2022/01/06 11:16:54;;;;;;;16.80;15.13;;;7.00;99.90;;;;;;4986926;28;20199;-79
2022/01/06 11:19:23;;;;;;;15.90;14.83;;;6.90;99.90;;;;;;4986473;28;20742;-80
2022/01/06 11:21:51;;;;;;;16.30;14.90;;;6.80;99.90;;;;;;5003548;28;20190;-80
2022/01/06 11:24:23;;;;;;;16.77;13.90;;;6.70;99.90;;;;;;5003173;28;20202;-80
2022/01/06 11:27:00;;;;;;;15.30;14.20;;;6.60;99.90;;;;;;5002257;28;20223;-80
2022/01/06 11:29:28;;;;;;;15.43;14.00;;;6.60;99.90;;;;;;5020181;28;20195;-80
2022/01/06 11:31:54;;;;;;;15.07;13.63;;;6.50;99.90;;;;;;5018908;28;20660;-79
2022/01/06 11:34:20;;;;;;;15.93;14.83;;;6.50;99.90;;;;;;4988063;28;20310;-79
2022/01/06 11:36:54;;;;;;;16.13;14.97;;;6.40;99.90;;;;;;5001949;28;20630;-80
2022/01/06 11:39:26;;;;;;;16.67;15.50;;;6.40;99.90;;;;;;5001384;28;20194;-81
2022/01/06 11:41:53;;;;;;;17.23;16.07;;;6.40;99.90;;;;;;5019979;28;20206;-80
2022/01/06 11:44:26;;;;;;;19.23;17.37;;;6.50;99.90;;;;;;5001139;28;20286;-81
2022/01/06 11:46:56;;;;;;;18.10;16.90;;;6.50;99.90;;;;;;5017038;28;20649;-79
2022/01/06 11:49:36;;;;;;;19.17;17.90;;;6.50;99.90;;;;;;5001837;28;20324;-79
2022/01/06 11:52:14;;;;;;;20.57;18.70;;;6.50;99.90;;;;;;5019674;28;20211;-79
2022/01/06 11:54:55;;;;;;;20.50;19.03;;;6.60;99.90;;;;;;5004489;28;20188;-79
2022/01/06 11:57:31;;;;;;;20.13;18.80;;;6.60;99.90;;;;;;5001323;28;20207;-81
2022/01/06 11:59:59;;;;;;;21.10;19.50;;;6.70;99.90;;;;;;5018423;28;20198;-80
2022/01/06 12:02:25;;;;;;;20.13;18.30;;;6.80;99.90;;;;;;5020561;28;20187;-80
2022/01/06 12:04:56;;;;;;;18.03;16.33;;;6.80;99.90;;;;;;5001355;28;20774;-80
2022/01/06 12:07:21;;;;;;;18.17;16.57;;;7.00;99.90;;;;;;4991050;28;20196;-79
2022/01/06 12:10:06;;;;;;;18.03;16.30;;;7.20;99.90;;;;;;4987543;28;20551;-79
2022/01/06 12:12:37;;;;;;;16.50;15.13;;;7.30;99.90;;;;;;5022701;28;20366;-81
2022/01/06 12:15:07;;;;;;;16.13;14.97;;;7.50;99.90;;;;;;5020898;28;20668;-80
2022/01/06 12:17:33;;;;;;;15.40;13.80;;;7.70;99.90;;;;;;4988939;28;20287;-81
2022/01/06 12:19:59;;;;;;;16.67;13.23;;;7.70;99.90;;;;;;4986283;28;20262;-79
2022/01/06 12:22:26;;;;;;;15.53;12.93;;;7.80;99.90;;;;;;5020147;28;20230;-80
2022/01/06 12:25:05;;;;;;;13.10;11.83;;;7.80;99.90;;;;;;5008158;28;20222;-82
2022/01/06 12:27:31;;;;;;;13.73;12.57;;;7.80;99.90;;;;;;4982332;28;20592;-80
2022/01/06 12:29:57;;;;;;;12.30;11.07;;;7.60;99.90;;;;;;5020583;28;20183;-80
2022/01/06 12:32:23;;;;;;;11.93;10.43;;;7.50;99.90;;;;;;5002935;28;20499;-81
2022/01/06 12:34:56;;;;;;;15.23;11.23;;;7.30;99.90;;;;;;5002808;28;20661;-80
2022/01/06 12:37:29;;;;;;;10.63;9.70;;;7.20;99.90;;;;;;4976865;28;20202;-80
2022/01/06 12:39:57;;;;;;;11.47;9.47;;;7.30;99.90;;;;;;5019995;28;20195;-79
2022/01/06 12:42:23;;;;;;;10.87;9.10;;;7.40;99.90;;;;;;5018145;28;20219;-80
2022/01/06 12:44:50;;;;;;;10.63;9.53;;;7.50;99.90;;;;;;5021741;28;21024;-81
2022/01/06 12:47:15;;;;;;;10.97;9.43;;;7.60;99.90;;;;;;4985440;28;20191;-80
2022/01/06 12:49:41;;;;;;;11.73;9.33;;;7.70;99.90;;;;;;4971327;28;20198;-80
2022/01/06 12:52:08;;;;;;;11.17;8.30;;;7.90;99.90;;;;;;5000994;28;20803;-80